sensor_id;sensor_type;location;lat;lon;timestamp;P1;durP1;ratioP1;P2;durP2;ratioP2
8401;SDS011;4238;48.404;9.498;2023-03-12T00:02:01;4.07;;;3.67;;
8401;SDS011;4238;48.404;9.498;2023-03-12T00:04:28;4.37;;;2.93;;
8401;SDS011;4238;48.404;9.498;2023-03-12T00:06:58;3.63;;;3.13;;
8401;SDS011;4238;48.404;9.498;2023-03-12T00:09:27;4.80;;;3.50;;
8401;SDS011;4238;48.404;9.498;2023-03-12T00:11:54;3.40;;;3.07;;
8401;SDS011;4238;48.404;9.498;2023-03-12T00:14:20;2.67;;;2.30;;
8401;SDS011;4238;48.404;9.498;2023-03-12T00:16:47;3.90;;;3.17;;
8401;SDS011;4238;48.404;9.498;2023-03-12T00:19:14;3.73;;;3.43;;
8401;SDS011;4238;48.404;9.498;2023-03-12T00:21:41;2.93;;;2.63;;
8401;SDS011;4238;48.404;9.498;2023-03-12T00:24:08;3.37;;;3.03;;
8401;SDS011;4238;48.404;9.498;2023-03-12T00:26:36;6.20;;;3.80;;
8401;SDS011;4238;48.404;9.498;2023-03-12T00:29:03;6.40;;;4.03;;
8401;SDS011;4238;48.404;9.498;2023-03-12T00:31:31;6.87;;;4.07;;
8401;SDS011;4238;48.404;9.498;2023-03-12T00:33:59;6.67;;;4.57;;
8401;SDS011;4238;48.404;9.498;2023-03-12T00:36:27;7.13;;;4.37;;
8401;SDS011;4238;48.404;9.498;2023-03-12T00:38:56;10.63;;;4.80;;
8401;SDS011;4238;48.404;9.498;2023-03-12T00:41:24;5.47;;;4.33;;
8401;SDS011;4238;48.404;9.498;2023-03-12T00:43:53;6.97;;;4.10;;
8401;SDS011;4238;48.404;9.498;2023-03-12T00:46:20;7.17;;;4.00;;
8401;SDS011;4238;48.404;9.498;2023-03-12T00:48:47;6.60;;;4.10;;
8401;SDS011;4238;48.404;9.498;2023-03-12T00:51:14;4.70;;;3.70;;
8401;SDS011;4238;48.404;9.498;2023-03-12T00:53:41;8.67;;;4.27;;
8401;SDS011;4238;48.404;9.498;2023-03-12T00:56:08;5.43;;;4.17;;
8401;SDS011;4238;48.404;9.498;2023-03-12T00:58:35;8.67;;;4.60;;
8401;SDS011;4238;48.404;9.498;2023-03-12T01:01:04;4.33;;;4.03;;
8401;SDS011;4238;48.404;9.498;2023-03-12T01:03:31;6.47;;;4.37;;
8401;SDS011;4238;48.404;9.498;2023-03-12T01:05:58;6.90;;;4.97;;
8401;SDS011;4238;48.404;9.498;2023-03-12T01:08:25;5.57;;;4.70;;
8401;SDS011;4238;48.404;9.498;2023-03-12T01:10:52;9.30;;;4.50;;
8401;SDS011;4238;48.404;9.498;2023-03-12T01:13:19;4.77;;;4.27;;
8401;SDS011;4238;48.404;9.498;2023-03-12T01:15:46;5.40;;;3.80;;
8401;SDS011;4238;48.404;9.498;2023-03-12T01:18:14;4.07;;;3.67;;
8401;SDS011;4238;48.404;9.498;2023-03-12T01:20:41;3.63;;;3.33;;
8401;SDS011;4238;48.404;9.498;2023-03-12T01:23:08;4.97;;;3.53;;
8401;SDS011;4238;48.404;9.498;2023-03-12T01:25:35;5.07;;;3.77;;
8401;SDS011;4238;48.404;9.498;2023-03-12T01:28:02;3.80;;;3.50;;
8401;SDS011;4238;48.404;9.498;2023-03-12T01:30:30;5.13;;;3.43;;
8401;SDS011;4238;48.404;9.498;2023-03-12T01:32:57;5.03;;;4.53;;
8401;SDS011;4238;48.404;9.498;2023-03-12T01:35:25;5.43;;;3.60;;
8401;SDS011;4238;48.404;9.498;2023-03-12T01:37:52;6.10;;;3.73;;
8401;SDS011;4238;48.404;9.498;2023-03-12T01:40:20;4.57;;;4.13;;
8401;SDS011;4238;48.404;9.498;2023-03-12T01:42:52;6.53;;;4.50;;
8401;SDS011;4238;48.404;9.498;2023-03-12T01:48:23;6.47;;;4.83;;
8401;SDS011;4238;48.404;9.498;2023-03-12T01:50:52;6.63;;;4.93;;
8401;SDS011;4238;48.404;9.498;2023-03-12T01:53:19;9.60;;;5.37;;
8401;SDS011;4238;48.404;9.498;2023-03-12T01:55:46;6.67;;;5.83;;
8401;SDS011;4238;48.404;9.498;2023-03-12T01:58:14;7.13;;;5.50;;
8401;SDS011;4238;48.404;9.498;2023-03-12T02:00:41;10.13;;;5.53;;
8401;SDS011;4238;48.404;9.498;2023-03-12T02:03:08;6.17;;;5.57;;
8401;SDS011;4238;48.404;9.498;2023-03-12T02:05:39;8.97;;;6.00;;
8401;SDS011;4238;48.404;9.498;2023-03-12T02:08:14;7.53;;;5.87;;
8401;SDS011;4238;48.404;9.498;2023-03-12T02:10:42;9.97;;;5.67;;
8401;SDS011;4238;48.404;9.498;2023-03-12T02:13:09;6.93;;;5.20;;
8401;SDS011;4238;48.404;9.498;2023-03-12T02:15:37;5.57;;;4.90;;
8401;SDS011;4238;48.404;9.498;2023-03-12T02:18:05;8.13;;;5.40;;
8401;SDS011;4238;48.404;9.498;2023-03-12T02:20:35;10.00;;;5.67;;
8401;SDS011;4238;48.404;9.498;2023-03-12T02:23:11;8.57;;;5.37;;
8401;SDS011;4238;48.404;9.498;2023-03-12T02:25:45;6.57;;;5.23;;
8401;SDS011;4238;48.404;9.498;2023-03-12T02:28:15;6.27;;;4.77;;
8401;SDS011;4238;48.404;9.498;2023-03-12T02:30:45;6.30;;;5.13;;
8401;SDS011;4238;48.404;9.498;2023-03-12T02:33:15;4.97;;;4.30;;
8401;SDS011;4238;48.404;9.498;2023-03-12T02:35:42;5.57;;;4.47;;
8401;SDS011;4238;48.404;9.498;2023-03-12T02:38:28;6.10;;;4.53;;
8401;SDS011;4238;48.404;9.498;2023-03-12T02:41:02;5.80;;;4.30;;
8401;SDS011;4238;48.404;9.498;2023-03-12T02:43:35;5.67;;;4.87;;
8401;SDS011;4238;48.404;9.498;2023-03-12T02:46:02;4.77;;;4.23;;
8401;SDS011;4238;48.404;9.498;2023-03-12T02:48:30;5.07;;;4.27;;
8401;SDS011;4238;48.404;9.498;2023-03-12T02:50:57;9.57;;;5.00;;
8401;SDS011;4238;48.404;9.498;2023-03-12T02:53:24;4.00;;;3.60;;
8401;SDS011;4238;48.404;9.498;2023-03-12T02:55:51;5.73;;;4.10;;
8401;SDS011;4238;48.404;9.498;2023-03-12T02:58:19;5.73;;;4.43;;
8401;SDS011;4238;48.404;9.498;2023-03-12T03:00:46;5.43;;;4.20;;
8401;SDS011;4238;48.404;9.498;2023-03-12T03:03:13;6.13;;;3.70;;
8401;SDS011;4238;48.404;9.498;2023-03-12T03:05:39;4.50;;;3.53;;
8401;SDS011;4238;48.404;9.498;2023-03-12T03:08:06;6.67;;;4.53;;
8401;SDS011;4238;48.404;9.498;2023-03-12T03:10:34;7.17;;;4.37;;
8401;SDS011;4238;48.404;9.498;2023-03-12T03:13:01;4.10;;;3.77;;
8401;SDS011;4238;48.404;9.498;2023-03-12T03:15:29;4.50;;;4.00;;
8401;SDS011;4238;48.404;9.498;2023-03-12T03:17:56;4.70;;;3.70;;
8401;SDS011;4238;48.404;9.498;2023-03-12T03:20:23;3.83;;;3.43;;
8401;SDS011;4238;48.404;9.498;2023-03-12T03:22:50;6.53;;;3.50;;
8401;SDS011;4238;48.404;9.498;2023-03-12T03:25:17;4.57;;;3.57;;
8401;SDS011;4238;48.404;9.498;2023-03-12T03:27:46;5.77;;;3.50;;
8401;SDS011;4238;48.404;9.498;2023-03-12T03:30:13;3.77;;;3.40;;
8401;SDS011;4238;48.404;9.498;2023-03-12T03:32:42;3.70;;;3.40;;
8401;SDS011;4238;48.404;9.498;2023-03-12T03:35:09;4.87;;;3.90;;
8401;SDS011;4238;48.404;9.498;2023-03-12T03:37:36;3.93;;;3.63;;
8401;SDS011;4238;48.404;9.498;2023-03-12T03:40:03;6.77;;;3.53;;
8401;SDS011;4238;48.404;9.498;2023-03-12T03:42:35;5.10;;;4.20;;
8401;SDS011;4238;48.404;9.498;2023-03-12T03:45:03;4.10;;;3.70;;
8401;SDS011;4238;48.404;9.498;2023-03-12T03:47:31;5.53;;;3.87;;
8401;SDS011;4238;48.404;9.498;2023-03-12T03:49:59;3.60;;;3.30;;
8401;SDS011;4238;48.404;9.498;2023-03-12T03:52:26;3.73;;;2.90;;
8401;SDS011;4238;48.404;9.498;2023-03-12T03:54:53;3.03;;;2.67;;
8401;SDS011;4238;48.404;9.498;2023-03-12T03:57:21;2.97;;;2.43;;
8401;SDS011;4238;48.404;9.498;2023-03-12T03:59:48;2.67;;;2.47;;
8401;SDS011;4238;48.404;9.498;2023-03-12T04:02:15;2.70;;;2.50;;
8401;SDS011;4238;48.404;9.498;2023-03-12T04:04:42;6.10;;;2.60;;
8401;SDS011;4238;48.404;9.498;2023-03-12T04:07:11;4.80;;;2.83;;
8401;SDS011;4238;48.404;9.498;2023-03-12T04:09:38;3.43;;;2.80;;
8401;SDS011;4238;48.404;9.498;2023-03-12T04:12:05;2.70;;;2.50;;
8401;SDS011;4238;48.404;9.498;2023-03-12T04:14:32;8.73;;;4.47;;
8401;SDS011;4238;48.404;9.498;2023-03-12T04:16:59;4.40;;;3.80;;
8401;SDS011;4238;48.404;9.498;2023-03-12T04:19:26;3.60;;;3.10;;
8401;SDS011;4238;48.404;9.498;2023-03-12T04:21:53;3.30;;;3.00;;
8401;SDS011;4238;48.404;9.498;2023-03-12T04:24:21;4.80;;;3.13;;
8401;SDS011;4238;48.404;9.498;2023-03-12T04:26:48;3.10;;;2.80;;
8401;SDS011;4238;48.404;9.498;2023-03-12T04:29:15;3.73;;;2.77;;
8401;SDS011;4238;48.404;9.498;2023-03-12T04:31:43;4.57;;;2.97;;
8401;SDS011;4238;48.404;9.498;2023-03-12T04:34:10;3.37;;;3.10;;
8401;SDS011;4238;48.404;9.498;2023-03-12T04:36:37;4.47;;;3.63;;
8401;SDS011;4238;48.404;9.498;2023-03-12T04:39:04;4.57;;;3.27;;
8401;SDS011;4238;48.404;9.498;2023-03-12T04:41:33;7.00;;;3.60;;
8401;SDS011;4238;48.404;9.498;2023-03-12T04:44:00;4.07;;;2.90;;
8401;SDS011;4238;48.404;9.498;2023-03-12T04:46:28;4.17;;;3.70;;
8401;SDS011;4238;48.404;9.498;2023-03-12T04:48:55;5.07;;;3.67;;
8401;SDS011;4238;48.404;9.498;2023-03-12T04:51:26;8.80;;;4.10;;
8401;SDS011;4238;48.404;9.498;2023-03-12T04:53:53;6.00;;;4.80;;
8401;SDS011;4238;48.404;9.498;2023-03-12T04:56:20;5.17;;;3.90;;
8401;SDS011;4238;48.404;9.498;2023-03-12T04:58:49;5.07;;;4.13;;
8401;SDS011;4238;48.404;9.498;2023-03-12T05:01:18;8.27;;;4.60;;
8401;SDS011;4238;48.404;9.498;2023-03-12T05:03:50;5.57;;;4.13;;
8401;SDS011;4238;48.404;9.498;2023-03-12T05:06:17;6.70;;;4.33;;
8401;SDS011;4238;48.404;9.498;2023-03-12T05:08:44;5.50;;;4.20;;
8401;SDS011;4238;48.404;9.498;2023-03-12T05:11:11;5.47;;;4.60;;
8401;SDS011;4238;48.404;9.498;2023-03-12T05:13:38;8.40;;;5.30;;
8401;SDS011;4238;48.404;9.498;2023-03-12T05:16:07;9.00;;;5.27;;
8401;SDS011;4238;48.404;9.498;2023-03-12T05:18:35;8.10;;;5.60;;
8401;SDS011;4238;48.404;9.498;2023-03-12T05:21:03;7.53;;;6.20;;
8401;SDS011;4238;48.404;9.498;2023-03-12T05:23:32;6.87;;;5.60;;
8401;SDS011;4238;48.404;9.498;2023-03-12T05:25:59;8.83;;;5.90;;
8401;SDS011;4238;48.404;9.498;2023-03-12T05:28:27;6.83;;;5.83;;
8401;SDS011;4238;48.404;9.498;2023-03-12T05:30:54;9.20;;;6.93;;
8401;SDS011;4238;48.404;9.498;2023-03-12T05:33:23;12.07;;;8.07;;
8401;SDS011;4238;48.404;9.498;2023-03-12T05:35:51;8.60;;;7.67;;
8401;SDS011;4238;48.404;9.498;2023-03-12T05:38:18;11.50;;;8.03;;
8401;SDS011;4238;48.404;9.498;2023-03-12T05:40:50;11.07;;;7.73;;
8401;SDS011;4238;48.404;9.498;2023-03-12T05:43:18;14.10;;;9.80;;
8401;SDS011;4238;48.404;9.498;2023-03-12T05:45:45;15.47;;;10.03;;
8401;SDS011;4238;48.404;9.498;2023-03-12T05:48:12;13.07;;;9.40;;
8401;SDS011;4238;48.404;9.498;2023-03-12T05:50:40;15.67;;;11.80;;
8401;SDS011;4238;48.404;9.498;2023-03-12T05:53:07;14.57;;;10.43;;
8401;SDS011;4238;48.404;9.498;2023-03-12T05:55:35;17.03;;;10.83;;
8401;SDS011;4238;48.404;9.498;2023-03-12T05:58:04;19.10;;;12.27;;
8401;SDS011;4238;48.404;9.498;2023-03-12T06:00:32;20.47;;;12.43;;
8401;SDS011;4238;48.404;9.498;2023-03-12T06:03:02;16.73;;;11.87;;
8401;SDS011;4238;48.404;9.498;2023-03-12T06:05:29;23.07;;;15.03;;
8401;SDS011;4238;48.404;9.498;2023-03-12T06:07:57;19.00;;;12.20;;
8401;SDS011;4238;48.404;9.498;2023-03-12T06:10:24;20.03;;;12.23;;
8401;SDS011;4238;48.404;9.498;2023-03-12T06:12:52;23.73;;;14.07;;
8401;SDS011;4238;48.404;9.498;2023-03-12T06:15:19;24.60;;;14.63;;
8401;SDS011;4238;48.404;9.498;2023-03-12T06:17:45;23.27;;;14.37;;
8401;SDS011;4238;48.404;9.498;2023-03-12T06:20:12;21.83;;;13.77;;
8401;SDS011;4238;48.404;9.498;2023-03-12T06:22:40;22.67;;;14.30;;
8401;SDS011;4238;48.404;9.498;2023-03-12T06:25:08;18.20;;;12.90;;
8401;SDS011;4238;48.404;9.498;2023-03-12T06:27:35;23.03;;;14.03;;
8401;SDS011;4238;48.404;9.498;2023-03-12T06:30:03;25.30;;;14.60;;
8401;SDS011;4238;48.404;9.498;2023-03-12T06:32:30;22.47;;;13.90;;
8401;SDS011;4238;48.404;9.498;2023-03-12T06:34:57;20.30;;;13.83;;
8401;SDS011;4238;48.404;9.498;2023-03-12T06:37:25;21.60;;;14.07;;
8401;SDS011;4238;48.404;9.498;2023-03-12T06:39:52;24.27;;;14.57;;
8401;SDS011;4238;48.404;9.498;2023-03-12T06:42:20;21.73;;;14.63;;
8401;SDS011;4238;48.404;9.498;2023-03-12T06:44:47;21.57;;;14.37;;
8401;SDS011;4238;48.404;9.498;2023-03-12T06:47:15;27.67;;;21.48;;
8401;SDS011;4238;48.404;9.498;2023-03-12T06:49:42;23.90;;;17.07;;
8401;SDS011;4238;48.404;9.498;2023-03-12T06:52:09;24.77;;;15.90;;
8401;SDS011;4238;48.404;9.498;2023-03-12T06:54:36;24.53;;;15.43;;
8401;SDS011;4238;48.404;9.498;2023-03-12T06:57:03;20.83;;;13.90;;
8401;SDS011;4238;48.404;9.498;2023-03-12T06:59:31;21.67;;;14.87;;
8401;SDS011;4238;48.404;9.498;2023-03-12T07:01:58;21.40;;;14.67;;
8401;SDS011;4238;48.404;9.498;2023-03-12T07:04:25;22.13;;;14.27;;
8401;SDS011;4238;48.404;9.498;2023-03-12T07:06:51;19.80;;;13.87;;
8401;SDS011;4238;48.404;9.498;2023-03-12T07:09:19;18.70;;;13.17;;
8401;SDS011;4238;48.404;9.498;2023-03-12T07:11:46;17.40;;;11.87;;
8401;SDS011;4238;48.404;9.498;2023-03-12T07:14:13;22.60;;;13.67;;
8401;SDS011;4238;48.404;9.498;2023-03-12T07:16:41;37.77;;;21.17;;
8401;SDS011;4238;48.404;9.498;2023-03-12T07:19:08;42.87;;;25.03;;
8401;SDS011;4238;48.404;9.498;2023-03-12T07:21:34;38.13;;;24.57;;
8401;SDS011;4238;48.404;9.498;2023-03-12T07:24:01;144.83;;;83.63;;
8401;SDS011;4238;48.404;9.498;2023-03-12T07:26:31;55.50;;;36.77;;
8401;SDS011;4238;48.404;9.498;2023-03-12T07:28:59;18.67;;;12.67;;
8401;SDS011;4238;48.404;9.498;2023-03-12T07:31:26;19.33;;;13.07;;
8401;SDS011;4238;48.404;9.498;2023-03-12T07:33:55;32.40;;;19.40;;
8401;SDS011;4238;48.404;9.498;2023-03-12T07:36:22;53.37;;;32.90;;
8401;SDS011;4238;48.404;9.498;2023-03-12T07:38:49;23.30;;;15.50;;
8401;SDS011;4238;48.404;9.498;2023-03-12T07:41:15;17.87;;;12.57;;
8401;SDS011;4238;48.404;9.498;2023-03-12T07:43:42;14.97;;;11.00;;
8401;SDS011;4238;48.404;9.498;2023-03-12T07:46:09;18.00;;;15.03;;
8401;SDS011;4238;48.404;9.498;2023-03-12T07:48:36;13.93;;;9.77;;
8401;SDS011;4238;48.404;9.498;2023-03-12T07:51:05;13.50;;;12.13;;
8401;SDS011;4238;48.404;9.498;2023-03-12T07:53:32;12.50;;;9.77;;
8401;SDS011;4238;48.404;9.498;2023-03-12T07:55:59;12.13;;;9.53;;
8401;SDS011;4238;48.404;9.498;2023-03-12T07:58:26;11.00;;;9.27;;
8401;SDS011;4238;48.404;9.498;2023-03-12T08:00:53;10.93;;;9.70;;
8401;SDS011;4238;48.404;9.498;2023-03-12T08:03:21;10.57;;;9.17;;
8401;SDS011;4238;48.404;9.498;2023-03-12T08:05:54;41.60;;;30.47;;
8401;SDS011;4238;48.404;9.498;2023-03-12T08:08:24;15.90;;;11.23;;
8401;SDS011;4238;48.404;9.498;2023-03-12T08:10:51;11.57;;;9.20;;
8401;SDS011;4238;48.404;9.498;2023-03-12T08:13:18;10.27;;;7.73;;
8401;SDS011;4238;48.404;9.498;2023-03-12T08:15:45;13.60;;;9.33;;
8401;SDS011;4238;48.404;9.498;2023-03-12T08:18:11;11.40;;;8.60;;
8401;SDS011;4238;48.404;9.498;2023-03-12T08:20:38;11.00;;;8.37;;
8401;SDS011;4238;48.404;9.498;2023-03-12T08:23:05;12.30;;;8.83;;
8401;SDS011;4238;48.404;9.498;2023-03-12T08:25:33;10.20;;;7.73;;
8401;SDS011;4238;48.404;9.498;2023-03-12T08:28:01;11.43;;;8.77;;
8401;SDS011;4238;48.404;9.498;2023-03-12T08:30:28;10.07;;;8.13;;
8401;SDS011;4238;48.404;9.498;2023-03-12T08:32:55;10.63;;;8.10;;
8401;SDS011;4238;48.404;9.498;2023-03-12T08:35:22;11.90;;;7.93;;
8401;SDS011;4238;48.404;9.498;2023-03-12T08:37:49;9.87;;;7.80;;
8401;SDS011;4238;48.404;9.498;2023-03-12T08:40:16;10.80;;;8.33;;
8401;SDS011;4238;48.404;9.498;2023-03-12T08:42:45;8.67;;;7.70;;
8401;SDS011;4238;48.404;9.498;2023-03-12T08:45:12;11.20;;;8.47;;
8401;SDS011;4238;48.404;9.498;2023-03-12T08:47:39;11.80;;;8.17;;
8401;SDS011;4238;48.404;9.498;2023-03-12T08:50:08;10.03;;;7.73;;
8401;SDS011;4238;48.404;9.498;2023-03-12T08:52:36;9.47;;;7.60;;
8401;SDS011;4238;48.404;9.498;2023-03-12T08:55:04;11.90;;;9.10;;
8401;SDS011;4238;48.404;9.498;2023-03-12T08:57:31;11.30;;;7.50;;
8401;SDS011;4238;48.404;9.498;2023-03-12T08:59:59;10.27;;;7.60;;
8401;SDS011;4238;48.404;9.498;2023-03-12T09:02:29;11.83;;;9.13;;
8401;SDS011;4238;48.404;9.498;2023-03-12T09:04:56;10.80;;;8.47;;
8401;SDS011;4238;48.404;9.498;2023-03-12T09:07:23;10.87;;;9.10;;
8401;SDS011;4238;48.404;9.498;2023-03-12T09:09:49;9.43;;;7.43;;
8401;SDS011;4238;48.404;9.498;2023-03-12T09:12:16;8.73;;;7.27;;
8401;SDS011;4238;48.404;9.498;2023-03-12T09:14:43;10.90;;;8.10;;
8401;SDS011;4238;48.404;9.498;2023-03-12T09:17:12;9.87;;;7.87;;
8401;SDS011;4238;48.404;9.498;2023-03-12T09:19:42;10.67;;;7.60;;
8401;SDS011;4238;48.404;9.498;2023-03-12T09:22:09;10.90;;;8.90;;
8401;SDS011;4238;48.404;9.498;2023-03-12T09:24:36;9.93;;;8.50;;
8401;SDS011;4238;48.404;9.498;2023-03-12T09:27:03;10.23;;;7.83;;
8401;SDS011;4238;48.404;9.498;2023-03-12T09:29:30;10.47;;;8.03;;
8401;SDS011;4238;48.404;9.498;2023-03-12T09:31:57;10.93;;;8.37;;
8401;SDS011;4238;48.404;9.498;2023-03-12T09:34:25;10.77;;;7.97;;
8401;SDS011;4238;48.404;9.498;2023-03-12T09:36:52;9.97;;;7.70;;
8401;SDS011;4238;48.404;9.498;2023-03-12T09:39:19;9.73;;;7.70;;
8401;SDS011;4238;48.404;9.498;2023-03-12T09:41:47;12.63;;;8.30;;
8401;SDS011;4238;48.404;9.498;2023-03-12T09:44:16;9.47;;;6.97;;
8401;SDS011;4238;48.404;9.498;2023-03-12T09:46:50;8.67;;;6.80;;
8401;SDS011;4238;48.404;9.498;2023-03-12T09:49:19;9.50;;;7.20;;
8401;SDS011;4238;48.404;9.498;2023-03-12T09:51:53;8.43;;;6.77;;
8401;SDS011;4238;48.404;9.498;2023-03-12T09:54:23;10.40;;;6.87;;
8401;SDS011;4238;48.404;9.498;2023-03-12T09:56:57;9.60;;;6.97;;
8401;SDS011;4238;48.404;9.498;2023-03-12T09:59:28;8.60;;;6.80;;
8401;SDS011;4238;48.404;9.498;2023-03-12T10:01:56;8.33;;;6.63;;
8401;SDS011;4238;48.404;9.498;2023-03-12T10:04:32;9.40;;;6.77;;
8401;SDS011;4238;48.404;9.498;2023-03-12T10:07:08;7.87;;;5.83;;
8401;SDS011;4238;48.404;9.498;2023-03-12T10:09:47;5.90;;;5.17;;
8401;SDS011;4238;48.404;9.498;2023-03-12T10:12:35;7.07;;;5.17;;
8401;SDS011;4238;48.404;9.498;2023-03-12T10:15:16;6.93;;;5.97;;
8401;SDS011;4238;48.404;9.498;2023-03-12T10:17:57;6.77;;;5.00;;
8401;SDS011;4238;48.404;9.498;2023-03-12T10:23:31;4.60;;;4.20;;
8401;SDS011;4238;48.404;9.498;2023-03-12T10:26:04;6.07;;;4.10;;
8401;SDS011;4238;48.404;9.498;2023-03-12T10:28:36;5.27;;;3.83;;
8401;SDS011;4238;48.404;9.498;2023-03-12T10:31:11;9.27;;;4.13;;
8401;SDS011;4238;48.404;9.498;2023-03-12T10:33:42;7.00;;;4.67;;
8401;SDS011;4238;48.404;9.498;2023-03-12T10:36:14;11.20;;;7.07;;
8401;SDS011;4238;48.404;9.498;2023-03-12T10:38:45;4.83;;;3.67;;
8401;SDS011;4238;48.404;9.498;2023-03-12T10:41:14;7.13;;;3.07;;
8401;SDS011;4238;48.404;9.498;2023-03-12T10:43:42;3.53;;;2.17;;
8401;SDS011;4238;48.404;9.498;2023-03-12T10:46:15;5.37;;;2.93;;
8401;SDS011;4238;48.404;9.498;2023-03-12T10:49:21;3.50;;;2.40;;
8401;SDS011;4238;48.404;9.498;2023-03-12T10:51:53;3.17;;;2.77;;
8401;SDS011;4238;48.404;9.498;2023-03-12T10:54:26;4.87;;;2.90;;
8401;SDS011;4238;48.404;9.498;2023-03-12T10:56:55;6.10;;;3.03;;
8401;SDS011;4238;48.404;9.498;2023-03-12T10:59:24;2.03;;;1.93;;
8401;SDS011;4238;48.404;9.498;2023-03-12T11:01:54;2.73;;;2.13;;
8401;SDS011;4238;48.404;9.498;2023-03-12T11:04:22;2.30;;;2.07;;
8401;SDS011;4238;48.404;9.498;2023-03-12T11:07:04;3.17;;;2.10;;
8401;SDS011;4238;48.404;9.498;2023-03-12T11:09:44;5.00;;;3.20;;
8401;SDS011;4238;48.404;9.498;2023-03-12T11:12:24;4.70;;;2.57;;
8401;SDS011;4238;48.404;9.498;2023-03-12T11:14:53;4.20;;;2.57;;
8401;SDS011;4238;48.404;9.498;2023-03-12T11:17:20;4.50;;;1.93;;
8401;SDS011;4238;48.404;9.498;2023-03-12T11:19:49;5.50;;;2.20;;
8401;SDS011;4238;48.404;9.498;2023-03-12T11:22:26;2.37;;;2.17;;
8401;SDS011;4238;48.404;9.498;2023-03-12T11:24:57;3.97;;;2.20;;
8401;SDS011;4238;48.404;9.498;2023-03-12T11:27:29;4.43;;;2.90;;
8401;SDS011;4238;48.404;9.498;2023-03-12T11:30:04;6.13;;;4.13;;
8401;SDS011;4238;48.404;9.498;2023-03-12T11:32:33;5.47;;;2.73;;
8401;SDS011;4238;48.404;9.498;2023-03-12T11:35:02;2.50;;;2.20;;
8401;SDS011;4238;48.404;9.498;2023-03-12T11:37:37;3.93;;;2.57;;
8401;SDS011;4238;48.404;9.498;2023-03-12T11:40:18;5.37;;;2.40;;
8401;SDS011;4238;48.404;9.498;2023-03-12T11:42:56;6.73;;;2.93;;
8401;SDS011;4238;48.404;9.498;2023-03-12T11:45:36;4.50;;;2.57;;
8401;SDS011;4238;48.404;9.498;2023-03-12T11:48:15;6.23;;;3.10;;
8401;SDS011;4238;48.404;9.498;2023-03-12T11:50:52;2.53;;;2.30;;
8401;SDS011;4238;48.404;9.498;2023-03-12T11:53:36;3.10;;;2.50;;
8401;SDS011;4238;48.404;9.498;2023-03-12T11:56:26;3.93;;;3.07;;
8401;SDS011;4238;48.404;9.498;2023-03-12T11:58:57;4.33;;;2.33;;
8401;SDS011;4238;48.404;9.498;2023-03-12T12:01:35;3.13;;;2.00;;
8401;SDS011;4238;48.404;9.498;2023-03-12T12:04:12;7.23;;;4.20;;
8401;SDS011;4238;48.404;9.498;2023-03-12T12:06:58;10.17;;;4.43;;
8401;SDS011;4238;48.404;9.498;2023-03-12T12:09:34;9.83;;;5.30;;
8401;SDS011;4238;48.404;9.498;2023-03-12T12:12:15;8.97;;;4.97;;
8401;SDS011;4238;48.404;9.498;2023-03-12T12:15:03;3.30;;;2.40;;
8401;SDS011;4238;48.404;9.498;2023-03-12T12:17:43;4.67;;;2.37;;
8401;SDS011;4238;48.404;9.498;2023-03-12T12:20:19;6.63;;;3.93;;
8401;SDS011;4238;48.404;9.498;2023-03-12T12:22:56;6.20;;;4.50;;
8401;SDS011;4238;48.404;9.498;2023-03-12T12:25:33;4.23;;;2.87;;
8401;SDS011;4238;48.404;9.498;2023-03-12T12:28:19;5.77;;;3.20;;
8401;SDS011;4238;48.404;9.498;2023-03-12T12:31:02;2.73;;;2.10;;
8401;SDS011;4238;48.404;9.498;2023-03-12T12:33:39;5.87;;;3.33;;
8401;SDS011;4238;48.404;9.498;2023-03-12T12:36:29;5.90;;;4.83;;
8401;SDS011;4238;48.404;9.498;2023-03-12T12:39:00;5.60;;;5.00;;
8401;SDS011;4238;48.404;9.498;2023-03-12T12:41:31;6.50;;;3.57;;
8401;SDS011;4238;48.404;9.498;2023-03-12T12:44:04;5.30;;;3.17;;
8401;SDS011;4238;48.404;9.498;2023-03-12T12:46:38;3.03;;;2.80;;
8401;SDS011;4238;48.404;9.498;2023-03-12T12:49:09;4.63;;;2.70;;
8401;SDS011;4238;48.404;9.498;2023-03-12T12:51:40;3.67;;;2.50;;
8401;SDS011;4238;48.404;9.498;2023-03-12T12:54:12;4.93;;;2.67;;
8401;SDS011;4238;48.404;9.498;2023-03-12T12:56:50;3.60;;;3.30;;
8401;SDS011;4238;48.404;9.498;2023-03-12T12:59:23;4.60;;;2.53;;
8401;SDS011;4238;48.404;9.498;2023-03-12T13:01:56;4.77;;;2.90;;
8401;SDS011;4238;48.404;9.498;2023-03-12T13:04:24;2.63;;;2.13;;
8401;SDS011;4238;48.404;9.498;2023-03-12T13:06:56;2.40;;;1.90;;
8401;SDS011;4238;48.404;9.498;2023-03-12T13:09:35;3.60;;;2.73;;
8401;SDS011;4238;48.404;9.498;2023-03-12T13:12:14;1.67;;;1.40;;
8401;SDS011;4238;48.404;9.498;2023-03-12T13:14:46;3.80;;;2.27;;
8401;SDS011;4238;48.404;9.498;2023-03-12T13:17:21;5.20;;;3.23;;
8401;SDS011;4238;48.404;9.498;2023-03-12T13:19:57;3.77;;;2.30;;
8401;SDS011;4238;48.404;9.498;2023-03-12T13:22:30;2.47;;;2.00;;
8401;SDS011;4238;48.404;9.498;2023-03-12T13:25:10;2.83;;;1.97;;
8401;SDS011;4238;48.404;9.498;2023-03-12T13:27:56;3.47;;;2.40;;
8401;SDS011;4238;48.404;9.498;2023-03-12T13:33:13;3.50;;;1.77;;
8401;SDS011;4238;48.404;9.498;2023-03-12T13:35:43;4.03;;;2.57;;
8401;SDS011;4238;48.404;9.498;2023-03-12T13:38:34;3.83;;;2.53;;
8401;SDS011;4238;48.404;9.498;2023-03-12T13:41:03;3.13;;;2.67;;
8401;SDS011;4238;48.404;9.498;2023-03-12T13:46:31;2.63;;;1.60;;
8401;SDS011;4238;48.404;9.498;2023-03-12T13:49:08;5.60;;;2.30;;
8401;SDS011;4238;48.404;9.498;2023-03-12T13:51:45;1.77;;;1.67;;
8401;SDS011;4238;48.404;9.498;2023-03-12T13:54:27;4.17;;;3.60;;
8401;SDS011;4238;48.404;9.498;2023-03-12T13:56:59;2.70;;;2.50;;
8401;SDS011;4238;48.404;9.498;2023-03-12T13:59:28;2.40;;;2.07;;
8401;SDS011;4238;48.404;9.498;2023-03-12T14:02:00;2.60;;;1.70;;
8401;SDS011;4238;48.404;9.498;2023-03-12T14:04:32;3.10;;;2.30;;
8401;SDS011;4238;48.404;9.498;2023-03-12T14:07:06;3.53;;;1.70;;
8401;SDS011;4238;48.404;9.498;2023-03-12T14:09:55;2.07;;;1.73;;
8401;SDS011;4238;48.404;9.498;2023-03-12T14:12:30;3.60;;;2.47;;
8401;SDS011;4238;48.404;9.498;2023-03-12T14:15:04;3.30;;;1.87;;
8401;SDS011;4238;48.404;9.498;2023-03-12T14:17:40;3.40;;;1.77;;
8401;SDS011;4238;48.404;9.498;2023-03-12T14:20:10;2.43;;;2.23;;
8401;SDS011;4238;48.404;9.498;2023-03-12T14:22:41;2.27;;;1.47;;
8401;SDS011;4238;48.404;9.498;2023-03-12T14:25:11;2.10;;;1.90;;
8401;SDS011;4238;48.404;9.498;2023-03-12T14:27:43;1.90;;;1.60;;
8401;SDS011;4238;48.404;9.498;2023-03-12T14:30:15;1.60;;;1.50;;
8401;SDS011;4238;48.404;9.498;2023-03-12T14:32:49;2.03;;;1.10;;
8401;SDS011;4238;48.404;9.498;2023-03-12T14:35:20;1.87;;;1.63;;
8401;SDS011;4238;48.404;9.498;2023-03-12T14:37:54;2.07;;;1.20;;
8401;SDS011;4238;48.404;9.498;2023-03-12T14:40:27;1.43;;;1.33;;
8401;SDS011;4238;48.404;9.498;2023-03-12T14:43:01;2.77;;;1.30;;
8401;SDS011;4238;48.404;9.498;2023-03-12T14:45:28;2.73;;;1.60;;
8401;SDS011;4238;48.404;9.498;2023-03-12T14:47:56;2.67;;;2.10;;
8401;SDS011;4238;48.404;9.498;2023-03-12T14:50:25;1.90;;;1.67;;
8401;SDS011;4238;48.404;9.498;2023-03-12T14:52:53;2.20;;;1.77;;
8401;SDS011;4238;48.404;9.498;2023-03-12T14:55:21;2.47;;;1.63;;
8401;SDS011;4238;48.404;9.498;2023-03-12T14:58:01;5.97;;;3.37;;
8401;SDS011;4238;48.404;9.498;2023-03-12T15:00:29;4.13;;;1.67;;
8401;SDS011;4238;48.404;9.498;2023-03-12T15:02:58;1.80;;;1.53;;
8401;SDS011;4238;48.404;9.498;2023-03-12T15:05:29;3.13;;;1.60;;
8401;SDS011;4238;48.404;9.498;2023-03-12T15:08:00;1.67;;;1.57;;
8401;SDS011;4238;48.404;9.498;2023-03-12T15:10:29;8.27;;;4.47;;
8401;SDS011;4238;48.404;9.498;2023-03-12T15:12:57;3.73;;;2.30;;
8401;SDS011;4238;48.404;9.498;2023-03-12T15:15:31;21.77;;;12.83;;
8401;SDS011;4238;48.404;9.498;2023-03-12T15:18:04;9.10;;;5.60;;
8401;SDS011;4238;48.404;9.498;2023-03-12T15:20:34;4.93;;;3.07;;
8401;SDS011;4238;48.404;9.498;2023-03-12T15:23:01;6.00;;;3.90;;
8401;SDS011;4238;48.404;9.498;2023-03-12T15:25:29;5.83;;;3.90;;
8401;SDS011;4238;48.404;9.498;2023-03-12T15:28:05;5.43;;;4.27;;
8401;SDS011;4238;48.404;9.498;2023-03-12T15:30:34;7.70;;;4.97;;
8401;SDS011;4238;48.404;9.498;2023-03-12T15:33:03;11.70;;;7.10;;
8401;SDS011;4238;48.404;9.498;2023-03-12T15:35:33;7.10;;;5.47;;
8401;SDS011;4238;48.404;9.498;2023-03-12T15:38:00;4.73;;;3.33;;
8401;SDS011;4238;48.404;9.498;2023-03-12T15:40:28;3.10;;;2.80;;